sensor_id;sensor_type;location;lat;lon;timestamp;pressure;altitude;pressure_sealevel;temperature;humidity
68376;BME280;55318;52.068;5.188;2023-02-18T00:02:37;102227.0;;;11.77;96.84
68376;BME280;55318;52.068;5.188;2023-02-18T00:04:14;102233.0;;;11.84;96.43
68376;BME280;55318;52.068;5.188;2023-02-18T00:05:51;102235.0;;;11.65;97.5
68376;BME280;55318;52.068;5.188;2023-02-18T00:09:09;102231.0;;;11.69;97.06
68376;BME280;55318;52.068;5.188;2023-02-18T00:10:46;102226.0;;;11.81;96.25
68376;BME280;55318;52.068;5.188;2023-02-18T00:12:23;102227.0;;;11.63;97.58
68376;BME280;55318;52.068;5.188;2023-02-18T00:14:01;102233.0;;;11.72;97.29
68376;BME280;55318;52.068;5.188;2023-02-18T00:17:15;102228.0;;;11.66;97.32
68376;BME280;55318;52.068;5.188;2023-02-18T00:18:54;102225.0;;;11.52;98.21
68376;BME280;55318;52.068;5.188;2023-02-18T00:20:33;102219.0;;;11.48;98.58
68376;BME280;55318;52.068;5.188;2023-02-18T00:23:45;102220.0;;;11.55;98.31
68376;BME280;55318;52.068;5.188;2023-02-18T00:25:22;102219.0;;;11.65;98.03
68376;BME280;55318;52.068;5.188;2023-02-18T00:26:58;102224.0;;;11.58;98.29
68376;BME280;55318;52.068;5.188;2023-02-18T00:30:12;102222.0;;;11.37;99.66
68376;BME280;55318;52.068;5.188;2023-02-18T00:31:48;102217.0;;;11.36;99.65
68376;BME280;55318;52.068;5.188;2023-02-18T00:33:25;102221.0;;;11.49;99.03
68376;BME280;55318;52.068;5.188;2023-02-18T00:35:02;102214.0;;;11.52;98.86
68376;BME280;55318;52.068;5.188;2023-02-18T00:38:16;102215.0;;;11.63;98.16
68376;BME280;55318;52.068;5.188;2023-02-18T00:39:52;102214.0;;;11.71;97.91
68376;BME280;55318;52.068;5.188;2023-02-18T00:41:30;102213.0;;;11.55;98.19
68376;BME280;55318;52.068;5.188;2023-02-18T00:44:43;102208.0;;;11.46;98.29
68376;BME280;55318;52.068;5.188;2023-02-18T00:46:20;102209.0;;;11.46;98.64
68376;BME280;55318;52.068;5.188;2023-02-18T00:47:57;102200.0;;;11.29;99.06
68376;BME280;55318;52.068;5.188;2023-02-18T00:49:33;102203.0;;;11.44;98.92
68376;BME280;55318;52.068;5.188;2023-02-18T00:52:47;102199.0;;;11.39;99.09
68376;BME280;55318;52.068;5.188;2023-02-18T00:54:23;102200.0;;;11.26;99.45
68376;BME280;55318;52.068;5.188;2023-02-18T00:55:59;102195.0;;;11.38;99.06
68376;BME280;55318;52.068;5.188;2023-02-18T00:59:13;102196.0;;;11.3;98.78
68376;BME280;55318;52.068;5.188;2023-02-18T01:00:49;102191.0;;;11.38;98.81
68376;BME280;55318;52.068;5.188;2023-02-18T01:02:26;102192.0;;;11.39;98.72
68376;BME280;55318;52.068;5.188;2023-02-18T01:05:41;102194.0;;;11.23;99.35
68376;BME280;55318;52.068;5.188;2023-02-18T01:07:18;102190.0;;;11.28;99.25
68376;BME280;55318;52.068;5.188;2023-02-18T01:08:54;102193.0;;;11.2;99.27
68376;BME280;55318;52.068;5.188;2023-02-18T01:10:32;102192.0;;;11.2;99.07
68376;BME280;55318;52.068;5.188;2023-02-18T01:13:45;102193.0;;;11.18;99.48
68376;BME280;55318;52.068;5.188;2023-02-18T01:15:22;102202.0;;;11.15;99.51
68376;BME280;55318;52.068;5.188;2023-02-18T01:16:59;102198.0;;;11.06;100.0
68376;BME280;55318;52.068;5.188;2023-02-18T01:20:13;102205.0;;;11.23;99.36
68376;BME280;55318;52.068;5.188;2023-02-18T01:21:50;102201.0;;;11.14;99.77
68376;BME280;55318;52.068;5.188;2023-02-18T01:23:27;102195.0;;;11.07;99.73
68376;BME280;55318;52.068;5.188;2023-02-18T01:26:41;102195.0;;;10.99;100.0
68376;BME280;55318;52.068;5.188;2023-02-18T01:28:18;102199.0;;;11.01;100.0
68376;BME280;55318;52.068;5.188;2023-02-18T01:29:54;102195.0;;;10.99;100.0
68376;BME280;55318;52.068;5.188;2023-02-18T01:31:30;102182.0;;;11.03;100.0
68376;BME280;55318;52.068;5.188;2023-02-18T01:34:43;102176.0;;;11.15;100.0
68376;BME280;55318;52.068;5.188;2023-02-18T01:36:20;102170.0;;;11.18;99.8
68376;BME280;55318;52.068;5.188;2023-02-18T01:37:56;102173.0;;;11.22;99.68
68376;BME280;55318;52.068;5.188;2023-02-18T01:41:09;102168.0;;;11.25;99.91
68376;BME280;55318;52.068;5.188;2023-02-18T01:42:46;102163.0;;;11.08;100.0
68376;BME280;55318;52.068;5.188;2023-02-18T01:44:25;102160.0;;;11.27;100.0
68376;BME280;55318;52.068;5.188;2023-02-18T01:46:07;102158.0;;;11.3;100.0
68376;BME280;55318;52.068;5.188;2023-02-18T01:49:29;102164.0;;;11.33;99.73
68376;BME280;55318;52.068;5.188;2023-02-18T01:51:11;102160.0;;;11.29;100.0
68376;BME280;55318;52.068;5.188;2023-02-18T01:52:49;102163.0;;;11.35;99.96
68376;BME280;55318;52.068;5.188;2023-02-18T01:54:28;102158.0;;;11.21;100.0
68376;BME280;55318;52.068;5.188;2023-02-18T01:57:49;102156.0;;;11.23;100.0
68376;BME280;55318;52.068;5.188;2023-02-18T01:59:29;102155.0;;;11.23;100.0
68376;BME280;55318;52.068;5.188;2023-02-18T02:01:08;102151.0;;;11.34;100.0
68376;BME280;55318;52.068;5.188;2023-02-18T02:02:46;102148.0;;;11.28;100.0
68376;BME280;55318;52.068;5.188;2023-02-18T02:05:59;102148.0;;;11.24;100.0
68376;BME280;55318;52.068;5.188;2023-02-18T02:07:37;102146.0;;;11.15;100.0
68376;BME280;55318;52.068;5.188;2023-02-18T02:09:18;102140.0;;;11.21;100.0
68376;BME280;55318;52.068;5.188;2023-02-18T02:12:59;102141.0;;;11.28;100.0
68376;BME280;55318;52.068;5.188;2023-02-18T02:14:50;102134.0;;;11.14;100.0
68376;BME280;55318;52.068;5.188;2023-02-18T02:17:02;102130.0;;;11.29;100.0
68376;BME280;55318;52.068;5.188;2023-02-18T02:18:53;102121.0;;;11.13;100.0
68376;BME280;55318;52.068;5.188;2023-02-18T02:20:55;102118.0;;;11.29;100.0
68376;BME280;55318;52.068;5.188;2023-02-18T02:24:48;102097.0;;;11.2;100.0
68376;BME280;55318;52.068;5.188;2023-02-18T02:27:23;102087.0;;;11.28;100.0
68376;BME280;55318;52.068;5.188;2023-02-18T02:29:14;102084.0;;;11.25;100.0
68376;BME280;55318;52.068;5.188;2023-02-18T02:35:26;102073.0;;;11.36;100.0
68376;BME280;55318;52.068;5.188;2023-02-18T02:37:12;102064.0;;;11.31;100.0
68376;BME280;55318;52.068;5.188;2023-02-18T02:38:54;102060.0;;;11.52;100.0
68376;BME280;55318;52.068;5.188;2023-02-18T02:40:37;102051.0;;;11.44;100.0
68376;BME280;55318;52.068;5.188;2023-02-18T02:44:17;102044.0;;;11.36;100.0
68376;BME280;55318;52.068;5.188;2023-02-18T02:45:57;102037.0;;;11.37;100.0
68376;BME280;55318;52.068;5.188;2023-02-18T02:47:44;102032.0;;;11.42;100.0
68376;BME280;55318;52.068;5.188;2023-02-18T02:49:35;102024.0;;;11.33;100.0
68376;BME280;55318;52.068;5.188;2023-02-18T02:51:17;102024.0;;;11.36;100.0
68376;BME280;55318;52.068;5.188;2023-02-18T02:53:01;102021.0;;;11.35;100.0
68376;BME280;55318;52.068;5.188;2023-02-18T02:56:19;102016.0;;;11.28;100.0
68376;BME280;55318;52.068;5.188;2023-02-18T02:57:57;102013.0;;;11.3;100.0
68376;BME280;55318;52.068;5.188;2023-02-18T02:59:35;102007.0;;;11.36;100.0
68376;BME280;55318;52.068;5.188;2023-02-18T03:03:32;102003.0;;;11.41;100.0
68376;BME280;55318;52.068;5.188;2023-02-18T03:05:23;101995.0;;;11.37;100.0
68376;BME280;55318;52.068;5.188;2023-02-18T03:07:27;101992.0;;;11.49;100.0
68376;BME280;55318;52.068;5.188;2023-02-18T03:09:13;101994.0;;;11.43;100.0
68376;BME280;55318;52.068;5.188;2023-02-18T03:11:02;101994.0;;;11.34;100.0
68376;BME280;55318;52.068;5.188;2023-02-18T03:12:46;101994.0;;;11.38;100.0
68376;BME280;55318;52.068;5.188;2023-02-18T03:14:27;101995.0;;;11.33;100.0
68376;BME280;55318;52.068;5.188;2023-02-18T03:19:41;101991.0;;;11.27;100.0
68376;BME280;55318;52.068;5.188;2023-02-18T03:21:27;101993.0;;;11.35;100.0
68376;BME280;55318;52.068;5.188;2023-02-18T03:23:08;101984.0;;;11.36;100.0
68376;BME280;55318;52.068;5.188;2023-02-18T03:24:55;101983.0;;;11.47;100.0
68376;BME280;55318;52.068;5.188;2023-02-18T03:26:35;101986.0;;;11.38;100.0
68376;BME280;55318;52.068;5.188;2023-02-18T03:29:56;101969.0;;;11.38;100.0
68376;BME280;55318;52.068;5.188;2023-02-18T03:31:38;101965.0;;;11.45;100.0
68376;BME280;55318;52.068;5.188;2023-02-18T03:33:23;101962.0;;;11.44;100.0
68376;BME280;55318;52.068;5.188;2023-02-18T03:35:14;101958.0;;;11.36;100.0
68376;BME280;55318;52.068;5.188;2023-02-18T03:38:34;101956.0;;;11.33;100.0
68376;BME280;55318;52.068;5.188;2023-02-18T03:40:12;101949.0;;;11.44;100.0
68376;BME280;55318;52.068;5.188;2023-02-18T03:41:50;101939.0;;;11.45;100.0
68376;BME280;55318;52.068;5.188;2023-02-18T03:43:27;101935.0;;;11.42;100.0
68376;BME280;55318;52.068;5.188;2023-02-18T03:46:43;101931.0;;;11.42;100.0
68376;BME280;55318;52.068;5.188;2023-02-18T03:48:20;101928.0;;;11.5;100.0
68376;BME280;55318;52.068;5.188;2023-02-18T03:49:56;101920.0;;;11.5;100.0
68376;BME280;55318;52.068;5.188;2023-02-18T03:51:32;101922.0;;;11.47;100.0
68376;BME280;55318;52.068;5.188;2023-02-18T03:54:44;101921.0;;;11.6;100.0
68376;BME280;55318;52.068;5.188;2023-02-18T03:56:21;101912.0;;;11.54;100.0
68376;BME280;55318;52.068;5.188;2023-02-18T03:57:57;101914.0;;;11.65;100.0
68376;BME280;55318;52.068;5.188;2023-02-18T04:01:10;101910.0;;;11.65;100.0
68376;BME280;55318;52.068;5.188;2023-02-18T04:02:46;101905.0;;;11.58;100.0
68376;BME280;55318;52.068;5.188;2023-02-18T04:04:22;101899.0;;;11.47;100.0
68376;BME280;55318;52.068;5.188;2023-02-18T04:07:35;101900.0;;;11.5;100.0
68376;BME280;55318;52.068;5.188;2023-02-18T04:09:12;101893.0;;;11.45;100.0
68376;BME280;55318;52.068;5.188;2023-02-18T04:10:49;101896.0;;;11.41;100.0
68376;BME280;55318;52.068;5.188;2023-02-18T04:14:02;101893.0;;;11.64;100.0
68376;BME280;55318;52.068;5.188;2023-02-18T04:15:39;101894.0;;;11.54;100.0
68376;BME280;55318;52.068;5.188;2023-02-18T04:17:15;101905.0;;;11.65;100.0
68376;BME280;55318;52.068;5.188;2023-02-18T04:18:51;101894.0;;;11.62;100.0
68376;BME280;55318;52.068;5.188;2023-02-18T04:22:04;101891.0;;;11.66;100.0
68376;BME280;55318;52.068;5.188;2023-02-18T04:23:40;101887.0;;;11.55;100.0
68376;BME280;55318;52.068;5.188;2023-02-18T04:25:17;101888.0;;;11.63;100.0
68376;BME280;55318;52.068;5.188;2023-02-18T04:28:30;101880.0;;;11.48;100.0
68376;BME280;55318;52.068;5.188;2023-02-18T04:30:07;101876.0;;;11.41;100.0
68376;BME280;55318;52.068;5.188;2023-02-18T04:31:43;101874.0;;;11.49;100.0
68376;BME280;55318;52.068;5.188;2023-02-18T04:34:55;101869.0;;;11.54;100.0
68376;BME280;55318;52.068;5.188;2023-02-18T04:36:32;101874.0;;;11.58;100.0
68376;BME280;55318;52.068;5.188;2023-02-18T04:38:09;101870.0;;;11.37;100.0
68376;BME280;55318;52.068;5.188;2023-02-18T04:39:46;101868.0;;;11.35;100.0
68376;BME280;55318;52.068;5.188;2023-02-18T04:42:59;101878.0;;;11.31;100.0
68376;BME280;55318;52.068;5.188;2023-02-18T04:44:36;101876.0;;;11.41;100.0
68376;BME280;55318;52.068;5.188;2023-02-18T04:46:12;101868.0;;;11.51;100.0
68376;BME280;55318;52.068;5.188;2023-02-18T04:49:24;101855.0;;;11.39;100.0
68376;BME280;55318;52.068;5.188;2023-02-18T04:51:01;101858.0;;;11.29;100.0
68376;BME280;55318;52.068;5.188;2023-02-18T04:52:38;101845.0;;;11.47;100.0
68376;BME280;55318;52.068;5.188;2023-02-18T04:55:52;101850.0;;;11.46;100.0
68376;BME280;55318;52.068;5.188;2023-02-18T04:57:29;101844.0;;;11.49;100.0
68376;BME280;55318;52.068;5.188;2023-02-18T04:59:05;101835.0;;;11.56;100.0
68376;BME280;55318;52.068;5.188;2023-02-18T05:00:41;101834.0;;;11.44;100.0
68376;BME280;55318;52.068;5.188;2023-02-18T05:03:54;101834.0;;;11.48;100.0
68376;BME280;55318;52.068;5.188;2023-02-18T05:05:30;101821.0;;;11.45;100.0
68376;BME280;55318;52.068;5.188;2023-02-18T05:07:06;101836.0;;;11.48;100.0
68376;BME280;55318;52.068;5.188;2023-02-18T05:10:18;101836.0;;;11.46;100.0
68376;BME280;55318;52.068;5.188;2023-02-18T05:11:54;101839.0;;;11.45;100.0
68376;BME280;55318;52.068;5.188;2023-02-18T05:13:30;101842.0;;;11.57;100.0
68376;BME280;55318;52.068;5.188;2023-02-18T05:16:44;101842.0;;;11.61;100.0
68376;BME280;55318;52.068;5.188;2023-02-18T05:18:20;101848.0;;;11.53;100.0
68376;BME280;55318;52.068;5.188;2023-02-18T05:19:57;101850.0;;;11.48;100.0
68376;BME280;55318;52.068;5.188;2023-02-18T05:21:33;101839.0;;;11.49;100.0
68376;BME280;55318;52.068;5.188;2023-02-18T05:24:45;101842.0;;;11.52;100.0
68376;BME280;55318;52.068;5.188;2023-02-18T05:26:21;101823.0;;;11.53;100.0
68376;BME280;55318;52.068;5.188;2023-02-18T05:27:58;101830.0;;;11.48;100.0
68376;BME280;55318;52.068;5.188;2023-02-18T05:31:10;101824.0;;;11.52;100.0
68376;BME280;55318;52.068;5.188;2023-02-18T05:32:47;101823.0;;;11.47;100.0
68376;BME280;55318;52.068;5.188;2023-02-18T05:34:23;101825.0;;;11.55;100.0
68376;BME280;55318;52.068;5.188;2023-02-18T05:37:35;101819.0;;;11.41;100.0
68376;BME280;55318;52.068;5.188;2023-02-18T05:39:11;101821.0;;;11.37;100.0
68376;BME280;55318;52.068;5.188;2023-02-18T05:40:47;101813.0;;;11.39;100.0
68376;BME280;55318;52.068;5.188;2023-02-18T05:44:32;101809.0;;;11.25;100.0
68376;BME280;55318;52.068;5.188;2023-02-18T05:46:09;101800.0;;;11.35;100.0
68376;BME280;55318;52.068;5.188;2023-02-18T05:47:45;101806.0;;;11.4;100.0
68376;BME280;55318;52.068;5.188;2023-02-18T05:49:21;101811.0;;;11.24;100.0
68376;BME280;55318;52.068;5.188;2023-02-18T05:50:57;101809.0;;;11.45;100.0
68376;BME280;55318;52.068;5.188;2023-02-18T05:54:10;101802.0;;;11.33;100.0
68376;BME280;55318;52.068;5.188;2023-02-18T05:55:46;101812.0;;;11.32;100.0
68376;BME280;55318;52.068;5.188;2023-02-18T05:57:22;101811.0;;;11.33;100.0
68376;BME280;55318;52.068;5.188;2023-02-18T06:00:36;101798.0;;;11.47;100.0
68376;BME280;55318;52.068;5.188;2023-02-18T06:02:12;101792.0;;;11.52;100.0
68376;BME280;55318;52.068;5.188;2023-02-18T06:03:48;101778.0;;;11.44;100.0
68376;BME280;55318;52.068;5.188;2023-02-18T06:07:00;101785.0;;;11.53;100.0
68376;BME280;55318;52.068;5.188;2023-02-18T06:08:36;101794.0;;;11.46;100.0
68376;BME280;55318;52.068;5.188;2023-02-18T06:10:12;101794.0;;;11.47;100.0
68376;BME280;55318;52.068;5.188;2023-02-18T06:11:49;101792.0;;;11.56;100.0
68376;BME280;55318;52.068;5.188;2023-02-18T06:15:01;101797.0;;;11.6;100.0
68376;BME280;55318;52.068;5.188;2023-02-18T06:16:37;101792.0;;;11.49;100.0
68376;BME280;55318;52.068;5.188;2023-02-18T06:18:13;101797.0;;;11.68;100.0
68376;BME280;55318;52.068;5.188;2023-02-18T06:21:26;101795.0;;;11.67;100.0
68376;BME280;55318;52.068;5.188;2023-02-18T06:23:01;101795.0;;;11.67;100.0
68376;BME280;55318;52.068;5.188;2023-02-18T06:24:38;101800.0;;;11.65;100.0
68376;BME280;55318;52.068;5.188;2023-02-18T06:27:50;101796.0;;;11.7;100.0
68376;BME280;55318;52.068;5.188;2023-02-18T06:29:29;101800.0;;;11.63;100.0
68376;BME280;55318;52.068;5.188;2023-02-18T06:31:05;101806.0;;;11.64;100.0
68376;BME280;55318;52.068;5.188;2023-02-18T06:32:42;101798.0;;;11.62;100.0
68376;BME280;55318;52.068;5.188;2023-02-18T06:35:56;101803.0;;;11.51;100.0
68376;BME280;55318;52.068;5.188;2023-02-18T06:37:33;101796.0;;;11.48;100.0
68376;BME280;55318;52.068;5.188;2023-02-18T06:39:09;101797.0;;;11.46;100.0
68376;BME280;55318;52.068;5.188;2023-02-18T06:42:22;101788.0;;;11.5;100.0
68376;BME280;55318;52.068;5.188;2023-02-18T06:43:58;101788.0;;;11.52;100.0
68376;BME280;55318;52.068;5.188;2023-02-18T06:45:37;101792.0;;;11.52;100.0
68376;BME280;55318;52.068;5.188;2023-02-18T06:48:49;101795.0;;;11.62;100.0
68376;BME280;55318;52.068;5.188;2023-02-18T06:50:27;101807.0;;;11.57;100.0
68376;BME280;55318;52.068;5.188;2023-02-18T06:52:03;101802.0;;;11.62;100.0
68376;BME280;55318;52.068;5.188;2023-02-18T06:53:40;101800.0;;;11.67;100.0
68376;BME280;55318;52.068;5.188;2023-02-18T06:56:52;101798.0;;;11.6;100.0
68376;BME280;55318;52.068;5.188;2023-02-18T06:58:28;101805.0;;;11.64;100.0
68376;BME280;55318;52.068;5.188;2023-02-18T07:00:07;101814.0;;;11.83;100.0
68376;BME280;55318;52.068;5.188;2023-02-18T07:03:19;101797.0;;;11.78;100.0
68376;BME280;55318;52.068;5.188;2023-02-18T07:04:55;101793.0;;;11.66;100.0
68376;BME280;55318;52.068;5.188;2023-02-18T07:06:31;101795.0;;;11.63;100.0
68376;BME280;55318;52.068;5.188;2023-02-18T07:09:44;101796.0;;;11.57;100.0
68376;BME280;55318;52.068;5.188;2023-02-18T07:11:21;101794.0;;;11.77;100.0
68376;BME280;55318;52.068;5.188;2023-02-18T07:12:57;101795.0;;;11.72;100.0
68376;BME280;55318;52.068;5.188;2023-02-18T07:14:34;101798.0;;;11.71;100.0
68376;BME280;55318;52.068;5.188;2023-02-18T07:17:46;101810.0;;;11.71;100.0
68376;BME280;55318;52.068;5.188;2023-02-18T07:19:22;101798.0;;;11.65;100.0
68376;BME280;55318;52.068;5.188;2023-02-18T07:20:58;101802.0;;;11.53;100.0
68376;BME280;55318;52.068;5.188;2023-02-18T07:24:11;101805.0;;;11.63;100.0
68376;BME280;55318;52.068;5.188;2023-02-18T07:25:47;101799.0;;;11.6;100.0
68376;BME280;55318;52.068;5.188;2023-02-18T07:27:23;101793.0;;;11.58;100.0
68376;BME280;55318;52.068;5.188;2023-02-18T07:30:37;101797.0;;;11.47;100.0
68376;BME280;55318;52.068;5.188;2023-02-18T07:32:15;101791.0;;;11.49;100.0
68376;BME280;55318;52.068;5.188;2023-02-18T07:33:53;101800.0;;;11.36;100.0
68376;BME280;55318;52.068;5.188;2023-02-18T07:35:29;101799.0;;;11.32;100.0
68376;BME280;55318;52.068;5.188;2023-02-18T07:38:45;101799.0;;;11.33;100.0
68376;BME280;55318;52.068;5.188;2023-02-18T07:40:21;101798.0;;;11.48;100.0
68376;BME280;55318;52.068;5.188;2023-02-18T07:41:57;101789.0;;;11.46;100.0
68376;BME280;55318;52.068;5.188;2023-02-18T07:45:10;101785.0;;;11.27;100.0
68376;BME280;55318;52.068;5.188;2023-02-18T07:46:46;101786.0;;;11.42;100.0
68376;BME280;55318;52.068;5.188;2023-02-18T07:48:22;101798.0;;;11.52;99.43
68376;BME280;55318;52.068;5.188;2023-02-18T07:51:35;101798.0;;;11.57;98.97
68376;BME280;55318;52.068;5.188;2023-02-18T07:53:12;101794.0;;;11.52;98.18
68376;BME280;55318;52.068;5.188;2023-02-18T07:54:50;101791.0;;;11.41;98.13
68376;BME280;55318;52.068;5.188;2023-02-18T07:56:26;101796.0;;;11.49;97.52
68376;BME280;55318;52.068;5.188;2023-02-18T07:59:38;101791.0;;;11.54;97.6
68376;BME280;55318;52.068;5.188;2023-02-18T08:01:14;101796.0;;;11.56;97.16
68376;BME280;55318;52.068;5.188;2023-02-18T08:02:51;101799.0;;;11.55;96.78
68376;BME280;55318;52.068;5.188;2023-02-18T08:06:04;101795.0;;;11.57;96.74
68376;BME280;55318;52.068;5.188;2023-02-18T08:07:41;101805.0;;;11.48;96.87
68376;BME280;55318;52.068;5.188;2023-02-18T08:09:17;101808.0;;;11.61;96.29
68376;BME280;55318;52.068;5.188;2023-02-18T08:12:34;101810.0;;;11.59;95.92
68376;BME280;55318;52.068;5.188;2023-02-18T08:14:10;101814.0;;;11.51;96.02
68376;BME280;55318;52.068;5.188;2023-02-18T08:15:46;101806.0;;;11.5;96.56
68376;BME280;55318;52.068;5.188;2023-02-18T08:17:23;101805.0;;;11.52;96.37
68376;BME280;55318;52.068;5.188;2023-02-18T08:20:39;101801.0;;;11.55;96.06
68376;BME280;55318;52.068;5.188;2023-02-18T08:22:15;101813.0;;;11.45;96.24
68376;BME280;55318;52.068;5.188;2023-02-18T08:23:51;101813.0;;;11.48;96.04
68376;BME280;55318;52.068;5.188;2023-02-18T08:27:05;101815.0;;;11.39;96.16
68376;BME280;55318;52.068;5.188;2023-02-18T08:28:41;101816.0;;;11.41;96.2
68376;BME280;55318;52.068;5.188;2023-02-18T08:30:18;101811.0;;;11.47;95.84
68376;BME280;55318;52.068;5.188;2023-02-18T08:31:56;101825.0;;;11.31;96.09
68376;BME280;55318;52.068;5.188;2023-02-18T08:35:10;101819.0;;;11.33;95.73
68376;BME280;55318;52.068;5.188;2023-02-18T08:36:46;101822.0;;;11.34;96.07
68376;BME280;55318;52.068;5.188;2023-02-18T08:38:23;101826.0;;;11.15;96.27
68376;BME280;55318;52.068;5.188;2023-02-18T08:41:36;101828.0;;;11.15;96.37
68376;BME280;55318;52.068;5.188;2023-02-18T08:43:14;101816.0;;;11.15;96.45
68376;BME280;55318;52.068;5.188;2023-02-18T08:44:51;101821.0;;;11.28;95.94
68376;BME280;55318;52.068;5.188;2023-02-18T08:48:03;101813.0;;;11.19;96.19
68376;BME280;55318;52.068;5.188;2023-02-18T08:49:40;101820.0;;;11.25;96.27
68376;BME280;55318;52.068;5.188;2023-02-18T08:51:19;101814.0;;;11.06;96.0
68376;BME280;55318;52.068;5.188;2023-02-18T08:52:59;101811.0;;;11.02;96.26
68376;BME280;55318;52.068;5.188;2023-02-18T08:56:14;101817.0;;;11.1;96.35
68376;BME280;55318;52.068;5.188;2023-02-18T08:57:51;101814.0;;;11.15;96.26
68376;BME280;55318;52.068;5.188;2023-02-18T08:59:27;101823.0;;;11.24;96.35
68376;BME280;55318;52.068;5.188;2023-02-18T09:02:43;101819.0;;;11.08;96.22
68376;BME280;55318;52.068;5.188;2023-02-18T09:04:20;101828.0;;;11.07;96.44
68376;BME280;55318;52.068;5.188;2023-02-18T09:05:58;101825.0;;;11.1;96.86
68376;BME280;55318;52.068;5.188;2023-02-18T09:07:34;101830.0;;;11.11;96.82
68376;BME280;55318;52.068;5.188;2023-02-18T09:10:48;101832.0;;;11.24;96.35
68376;BME280;55318;52.068;5.188;2023-02-18T09:12:24;101831.0;;;11.22;95.82
68376;BME280;55318;52.068;5.188;2023-02-18T09:14:02;101837.0;;;11.25;95.71
68376;BME280;55318;52.068;5.188;2023-02-18T09:17:14;101836.0;;;11.24;95.35
68376;BME280;55318;52.068;5.188;2023-02-18T09:18:50;101858.0;;;11.17;95.19
68376;BME280;55318;52.068;5.188;2023-02-18T09:20:27;101845.0;;;11.26;95.06
68376;BME280;55318;52.068;5.188;2023-02-18T09:23:39;101832.0;;;11.22;94.65
68376;BME280;55318;52.068;5.188;2023-02-18T09:25:15;101834.0;;;11.26;94.26
68376;BME280;55318;52.068;5.188;2023-02-18T09:26:51;101849.0;;;11.3;94.41
68376;BME280;55318;52.068;5.188;2023-02-18T09:28:27;101851.0;;;11.2;94.06
68376;BME280;55318;52.068;5.188;2023-02-18T09:31:42;101849.0;;;11.33;93.81
68376;BME280;55318;52.068;5.188;2023-02-18T09:33:19;101839.0;;;11.28;93.4
68376;BME280;55318;52.068;5.188;2023-02-18T09:34:55;101839.0;;;11.46;93.24
68376;BME280;55318;52.068;5.188;2023-02-18T09:38:09;101830.0;;;11.37;92.89
68376;BME280;55318;52.068;5.188;2023-02-18T09:39:48;101832.0;;;11.43;92.68
68376;BME280;55318;52.068;5.188;2023-02-18T09:41:30;101842.0;;;11.48;91.95
68376;BME280;55318;52.068;5.188;2023-02-18T09:43:23;101839.0;;;11.42;92.19
68376;BME280;55318;52.068;5.188;2023-02-18T09:45:10;101851.0;;;11.43;92.21
68376;BME280;55318;52.068;5.188;2023-02-18T09:48:31;101856.0;;;11.45;91.96
68376;BME280;55318;52.068;5.188;2023-02-18T09:50:14;101863.0;;;11.45;91.42
68376;BME280;55318;52.068;5.188;2023-02-18T09:52:01;101856.0;;;11.52;91.53
68376;BME280;55318;52.068;5.188;2023-02-18T09:53:42;101861.0;;;11.55;91.22
68376;BME280;55318;52.068;5.188;2023-02-18T09:57:00;101864.0;;;11.56;91.93
68376;BME280;55318;52.068;5.188;2023-02-18T09:58:38;101855.0;;;11.72;91.16
68376;BME280;55318;52.068;5.188;2023-02-18T10:00:18;101863.0;;;11.74;90.56
68376;BME280;55318;52.068;5.188;2023-02-18T10:02:00;101858.0;;;11.73;90.93
68376;BME280;55318;52.068;5.188;2023-02-18T10:05:14;101859.0;;;11.72;90.98
68376;BME280;55318;52.068;5.188;2023-02-18T10:06:51;101864.0;;;11.82;90.47
68376;BME280;55318;52.068;5.188;2023-02-18T10:08:32;101861.0;;;11.89;90.6
68376;BME280;55318;52.068;5.188;2023-02-18T10:11:57;101855.0;;;11.87;91.14
68376;BME280;55318;52.068;5.188;2023-02-18T10:13:40;101855.0;;;11.89;90.77
68376;BME280;55318;52.068;5.188;2023-02-18T10:15:20;101857.0;;;11.91;90.85
68376;BME280;55318;52.068;5.188;2023-02-18T10:16:58;101862.0;;;12.0;90.71
68376;BME280;55318;52.068;5.188;2023-02-18T10:18:40;101860.0;;;11.93;90.35
68376;BME280;55318;52.068;5.188;2023-02-18T10:22:01;101863.0;;;12.05;90.25
68376;BME280;55318;52.068;5.188;2023-02-18T10:23:42;101863.0;;;12.12;90.46
68376;BME280;55318;52.068;5.188;2023-02-18T10:25:30;101878.0;;;12.3;89.66
68376;BME280;55318;52.068;5.188;2023-02-18T10:27:09;101877.0;;;12.23;89.68
68376;BME280;55318;52.068;5.188;2023-02-18T10:30:39;101886.0;;;12.18;89.78
68376;BME280;55318;52.068;5.188;2023-02-18T10:32:21;101889.0;;;12.2;89.64
68376;BME280;55318;52.068;5.188;2023-02-18T10:34:02;101892.0;;;12.17;89.94
68376;BME280;55318;52.068;5.188;2023-02-18T10:35:49;101885.0;;;11.98;89.82
68376;BME280;55318;52.068;5.188;2023-02-18T10:37:41;101882.0;;;12.01;89.84
68376;BME280;55318;52.068;5.188;2023-02-18T10:41:29;101888.0;;;12.05;89.96
68376;BME280;55318;52.068;5.188;2023-02-18T10:43:14;101889.0;;;12.09;90.1
68376;BME280;55318;52.068;5.188;2023-02-18T10:45:05;101892.0;;;12.03;90.07
68376;BME280;55318;52.068;5.188;2023-02-18T10:47:01;101890.0;;;12.09;89.89
68376;BME280;55318;52.068;5.188;2023-02-18T10:48:53;101890.0;;;12.13;90.56
68376;BME280;55318;52.068;5.188;2023-02-18T10:50:36;101893.0;;;12.08;90.4
68376;BME280;55318;52.068;5.188;2023-02-18T10:52:16;101887.0;;;12.21;89.82
68376;BME280;55318;52.068;5.188;2023-02-18T10:55:35;101892.0;;;12.34;89.56
68376;BME280;55318;52.068;5.188;2023-02-18T10:57:16;101890.0;;;12.35;89.32
68376;BME280;55318;52.068;5.188;2023-02-18T10:59:00;101893.0;;;12.32;89.94
68376;BME280;55318;52.068;5.188;2023-02-18T11:00:40;101885.0;;;12.51;89.81
68376;BME280;55318;52.068;5.188;2023-02-18T11:04:06;101875.0;;;12.45;89.62
68376;BME280;55318;52.068;5.188;2023-02-18T11:05:43;101873.0;;;12.49;89.64
68376;BME280;55318;52.068;5.188;2023-02-18T11:07:22;101885.0;;;12.54;89.76
68376;BME280;55318;52.068;5.188;2023-02-18T11:09:01;101882.0;;;12.65;89.52
68376;BME280;55318;52.068;5.188;2023-02-18T11:12:21;101880.0;;;12.71;88.94
68376;BME280;55318;52.068;5.188;2023-02-18T11:14:00;101876.0;;;12.73;88.41
68376;BME280;55318;52.068;5.188;2023-02-18T11:15:53;101874.0;;;12.6;88.15